sensor_id;sensor_type;location;lat;lon;timestamp;pressure;altitude;pressure_sealevel;temperature;humidity
26376;BME280;30544;42.196;24.336;2023-08-20T00:01:08;99256.47;;;28.08;44.38
26376;BME280;30544;42.196;24.336;2023-08-20T00:03:40;99269.53;;;28.09;44.96
26376;BME280;30544;42.196;24.336;2023-08-20T00:06:09;99266.69;;;28.09;44.55
26376;BME280;30544;42.196;24.336;2023-08-20T00:08:37;99257.06;;;28.01;44.88
26376;BME280;30544;42.196;24.336;2023-08-20T00:11:06;99243.94;;;27.97;44.49
26376;BME280;30544;42.196;24.336;2023-08-20T00:13:33;99248.69;;;27.93;44.72
26376;BME280;30544;42.196;24.336;2023-08-20T00:16:00;99243.72;;;27.90;44.28
26376;BME280;30544;42.196;24.336;2023-08-20T00:18:28;99245.16;;;27.83;43.87
26376;BME280;30544;42.196;24.336;2023-08-20T00:20:54;99240.94;;;27.77;43.86
26376;BME280;30544;42.196;24.336;2023-08-20T00:23:41;99243.91;;;27.69;44.74
26376;BME280;30544;42.196;24.336;2023-08-20T00:26:16;99235.41;;;27.56;44.35
26376;BME280;30544;42.196;24.336;2023-08-20T00:28:43;99232.41;;;27.53;44.83
26376;BME280;30544;42.196;24.336;2023-08-20T00:31:11;99230.88;;;27.55;44.91
26376;BME280;30544;42.196;24.336;2023-08-20T00:33:38;99239.28;;;27.52;44.94
26376;BME280;30544;42.196;24.336;2023-08-20T00:36:05;99246.44;;;27.46;44.76
26376;BME280;30544;42.196;24.336;2023-08-20T00:38:31;99239.44;;;27.55;44.87
26376;BME280;30544;42.196;24.336;2023-08-20T00:41:02;99238.81;;;27.62;44.23
26376;BME280;30544;42.196;24.336;2023-08-20T00:43:32;99237.06;;;27.57;45.11
26376;BME280;30544;42.196;24.336;2023-08-20T00:45:59;99231.59;;;27.52;44.91
26376;BME280;30544;42.196;24.336;2023-08-20T00:48:32;99225.78;;;27.49;44.55
26376;BME280;30544;42.196;24.336;2023-08-20T00:51:01;99223.03;;;27.52;45.45
26376;BME280;30544;42.196;24.336;2023-08-20T00:53:28;99212.75;;;27.36;45.39
26376;BME280;30544;42.196;24.336;2023-08-20T00:55:57;99226.53;;;27.34;45.98
26376;BME280;30544;42.196;24.336;2023-08-20T00:58:25;99220.00;;;27.33;45.27
26376;BME280;30544;42.196;24.336;2023-08-20T01:00:55;99219.06;;;27.29;45.21
26376;BME280;30544;42.196;24.336;2023-08-20T01:03:27;99215.66;;;27.23;45.31
26376;BME280;30544;42.196;24.336;2023-08-20T01:06:01;99208.44;;;27.14;45.61
26376;BME280;30544;42.196;24.336;2023-08-20T01:08:40;99206.41;;;27.14;45.68
26376;BME280;30544;42.196;24.336;2023-08-20T01:11:24;99214.59;;;27.16;45.84
26376;BME280;30544;42.196;24.336;2023-08-20T01:13:56;99210.69;;;27.08;46.42
26376;BME280;30544;42.196;24.336;2023-08-20T01:16:27;99204.53;;;27.06;45.49
26376;BME280;30544;42.196;24.336;2023-08-20T01:18:57;99206.88;;;27.04;46.03
26376;BME280;30544;42.196;24.336;2023-08-20T01:21:38;99205.59;;;27.14;46.06
26376;BME280;30544;42.196;24.336;2023-08-20T01:24:20;99193.84;;;27.03;46.46
26376;BME280;30544;42.196;24.336;2023-08-20T01:27:08;99205.72;;;26.93;46.70
26376;BME280;30544;42.196;24.336;2023-08-20T01:29:39;99197.88;;;26.90;46.42
26376;BME280;30544;42.196;24.336;2023-08-20T01:32:07;99197.19;;;26.56;46.56
26376;BME280;30544;42.196;24.336;2023-08-20T01:34:36;99206.41;;;26.65;46.96
26376;BME280;30544;42.196;24.336;2023-08-20T01:37:14;99202.16;;;26.72;46.39
26376;BME280;30544;42.196;24.336;2023-08-20T01:39:40;99207.13;;;26.75;46.16
26376;BME280;30544;42.196;24.336;2023-08-20T01:42:09;99194.78;;;26.83;45.94
26376;BME280;30544;42.196;24.336;2023-08-20T01:44:38;99198.00;;;26.81;46.40
26376;BME280;30544;42.196;24.336;2023-08-20T01:47:06;99192.78;;;26.83;46.19
26376;BME280;30544;42.196;24.336;2023-08-20T01:49:37;99192.41;;;26.85;46.20
26376;BME280;30544;42.196;24.336;2023-08-20T01:52:04;99192.91;;;26.75;46.54
26376;BME280;30544;42.196;24.336;2023-08-20T01:54:33;99194.31;;;26.81;46.91
26376;BME280;30544;42.196;24.336;2023-08-20T01:57:00;99194.22;;;26.77;47.15
26376;BME280;30544;42.196;24.336;2023-08-20T01:59:31;99183.19;;;26.76;46.87
26376;BME280;30544;42.196;24.336;2023-08-20T02:02:01;99184.13;;;26.67;46.80
26376;BME280;30544;42.196;24.336;2023-08-20T02:04:29;99183.91;;;26.60;47.02
26376;BME280;30544;42.196;24.336;2023-08-20T02:07:01;99181.75;;;26.69;47.72
26376;BME280;30544;42.196;24.336;2023-08-20T02:09:31;99190.06;;;26.62;48.08
26376;BME280;30544;42.196;24.336;2023-08-20T02:11:58;99187.47;;;26.57;47.75
26376;BME280;30544;42.196;24.336;2023-08-20T02:14:28;99181.88;;;26.61;47.83
26376;BME280;30544;42.196;24.336;2023-08-20T02:16:55;99180.22;;;26.60;47.65
26376;BME280;30544;42.196;24.336;2023-08-20T02:19:25;99180.13;;;26.56;47.82
26376;BME280;30544;42.196;24.336;2023-08-20T02:21:54;99186.50;;;26.53;47.50
26376;BME280;30544;42.196;24.336;2023-08-20T02:24:21;99184.25;;;26.47;48.06
26376;BME280;30544;42.196;24.336;2023-08-20T02:26:54;99182.47;;;26.42;47.85
26376;BME280;30544;42.196;24.336;2023-08-20T02:29:23;99186.88;;;26.40;48.23
26376;BME280;30544;42.196;24.336;2023-08-20T02:31:49;99191.47;;;26.44;47.49
26376;BME280;30544;42.196;24.336;2023-08-20T02:34:18;99186.38;;;26.37;48.04
26376;BME280;30544;42.196;24.336;2023-08-20T02:36:49;99198.75;;;26.33;48.04
26376;BME280;30544;42.196;24.336;2023-08-20T02:39:21;99192.25;;;26.32;47.78
26376;BME280;30544;42.196;24.336;2023-08-20T02:41:51;99194.94;;;26.17;48.48
26376;BME280;30544;42.196;24.336;2023-08-20T02:44:20;99190.91;;;26.18;48.65
26376;BME280;30544;42.196;24.336;2023-08-20T02:46:51;99182.75;;;26.16;48.75
26376;BME280;30544;42.196;24.336;2023-08-20T02:49:18;99190.69;;;26.11;48.61
26376;BME280;30544;42.196;24.336;2023-08-20T02:51:45;99192.56;;;26.06;48.99
26376;BME280;30544;42.196;24.336;2023-08-20T02:54:19;99198.50;;;26.14;48.70
26376;BME280;30544;42.196;24.336;2023-08-20T02:56:46;99189.03;;;26.09;48.56
26376;BME280;30544;42.196;24.336;2023-08-20T02:59:12;99190.56;;;26.07;48.42
26376;BME280;30544;42.196;24.336;2023-08-20T03:01:40;99195.38;;;25.94;48.67
26376;BME280;30544;42.196;24.336;2023-08-20T03:04:10;99194.91;;;25.92;48.90
26376;BME280;30544;42.196;24.336;2023-08-20T03:06:43;99198.44;;;25.89;48.49
26376;BME280;30544;42.196;24.336;2023-08-20T03:09:10;99199.28;;;25.90;48.82
26376;BME280;30544;42.196;24.336;2023-08-20T03:11:40;99190.22;;;25.75;49.11
26376;BME280;30544;42.196;24.336;2023-08-20T03:14:08;99196.03;;;25.79;48.75
26376;BME280;30544;42.196;24.336;2023-08-20T03:16:35;99190.00;;;25.81;49.22
26376;BME280;30544;42.196;24.336;2023-08-20T03:19:02;99196.16;;;25.83;49.14
26376;BME280;30544;42.196;24.336;2023-08-20T03:21:30;99200.53;;;25.80;48.93
26376;BME280;30544;42.196;24.336;2023-08-20T03:23:59;99200.75;;;25.75;49.18
26376;BME280;30544;42.196;24.336;2023-08-20T03:26:29;99200.53;;;25.59;49.46
26376;BME280;30544;42.196;24.336;2023-08-20T03:28:58;99199.69;;;25.59;49.61
26376;BME280;30544;42.196;24.336;2023-08-20T03:31:30;99190.97;;;25.64;49.18
26376;BME280;30544;42.196;24.336;2023-08-20T03:33:56;99188.13;;;25.64;49.25
26376;BME280;30544;42.196;24.336;2023-08-20T03:36:25;99191.94;;;25.68;49.47
26376;BME280;30544;42.196;24.336;2023-08-20T03:38:52;99192.38;;;25.58;49.28
26376;BME280;30544;42.196;24.336;2023-08-20T03:41:29;99190.47;;;25.62;49.34
26376;BME280;30544;42.196;24.336;2023-08-20T03:43:59;99201.34;;;25.60;49.58
26376;BME280;30544;42.196;24.336;2023-08-20T03:46:25;99200.19;;;25.61;49.41
26376;BME280;30544;42.196;24.336;2023-08-20T03:48:52;99199.34;;;25.60;49.36
26376;BME280;30544;42.196;24.336;2023-08-20T03:51:24;99205.97;;;25.64;49.55
26376;BME280;30544;42.196;24.336;2023-08-20T03:53:53;99205.16;;;25.64;49.56
26376;BME280;30544;42.196;24.336;2023-08-20T03:56:20;99205.16;;;25.64;49.46
26376;BME280;30544;42.196;24.336;2023-08-20T03:58:52;99209.50;;;25.70;49.59
26376;BME280;30544;42.196;24.336;2023-08-20T04:01:25;99209.31;;;25.66;49.84
26376;BME280;30544;42.196;24.336;2023-08-20T04:03:56;99203.13;;;25.73;49.97
26376;BME280;30544;42.196;24.336;2023-08-20T04:06:27;99201.72;;;25.79;49.96
26376;BME280;30544;42.196;24.336;2023-08-20T04:08:56;99201.56;;;25.75;49.92
26376;BME280;30544;42.196;24.336;2023-08-20T04:11:23;99203.59;;;25.75;49.91
26376;BME280;30544;42.196;24.336;2023-08-20T04:13:49;99203.50;;;25.84;49.67
26376;BME280;30544;42.196;24.336;2023-08-20T04:16:16;99207.63;;;25.86;49.54
26376;BME280;30544;42.196;24.336;2023-08-20T04:18:47;99206.91;;;25.77;49.71
26376;BME280;30544;42.196;24.336;2023-08-20T04:21:19;99197.69;;;25.80;49.28
26376;BME280;30544;42.196;24.336;2023-08-20T04:23:46;99208.09;;;25.76;49.41
26376;BME280;30544;42.196;24.336;2023-08-20T04:26:13;99204.47;;;25.88;49.66
26376;BME280;30544;42.196;24.336;2023-08-20T04:28:45;99212.50;;;25.86;49.30
26376;BME280;30544;42.196;24.336;2023-08-20T04:31:13;99213.94;;;25.92;49.40
26376;BME280;30544;42.196;24.336;2023-08-20T04:33:47;99219.75;;;25.95;49.02
26376;BME280;30544;42.196;24.336;2023-08-20T04:36:21;99216.78;;;25.92;49.12
26376;BME280;30544;42.196;24.336;2023-08-20T04:38:48;99218.94;;;25.95;48.92
26376;BME280;30544;42.196;24.336;2023-08-20T04:41:20;99220.59;;;25.96;48.88
26376;BME280;30544;42.196;24.336;2023-08-20T04:43:52;99216.31;;;26.02;48.76
26376;BME280;30544;42.196;24.336;2023-08-20T04:46:21;99213.66;;;26.05;48.61
26376;BME280;30544;42.196;24.336;2023-08-20T04:48:49;99209.75;;;26.10;48.87
26376;BME280;30544;42.196;24.336;2023-08-20T04:51:21;99216.97;;;26.20;48.87
26376;BME280;30544;42.196;24.336;2023-08-20T04:53:52;99221.63;;;26.24;48.96
26376;BME280;30544;42.196;24.336;2023-08-20T04:56:18;99222.34;;;26.33;48.17
26376;BME280;30544;42.196;24.336;2023-08-20T04:58:45;99214.09;;;26.41;48.65
26376;BME280;30544;42.196;24.336;2023-08-20T05:01:13;99222.16;;;26.51;48.74
26376;BME280;30544;42.196;24.336;2023-08-20T05:03:40;99216.63;;;26.54;48.27
26376;BME280;30544;42.196;24.336;2023-08-20T05:06:19;99211.75;;;26.55;47.88
26376;BME280;30544;42.196;24.336;2023-08-20T05:08:46;99220.97;;;26.64;47.63
26376;BME280;30544;42.196;24.336;2023-08-20T05:11:12;99222.53;;;26.74;47.83
26376;BME280;30544;42.196;24.336;2023-08-20T05:13:41;99230.59;;;26.72;47.17
26376;BME280;30544;42.196;24.336;2023-08-20T05:16:08;99232.97;;;26.82;47.39
26376;BME280;30544;42.196;24.336;2023-08-20T05:18:35;99225.88;;;26.88;47.20
26376;BME280;30544;42.196;24.336;2023-08-20T05:21:05;99235.81;;;26.94;47.45
26376;BME280;30544;42.196;24.336;2023-08-20T05:23:38;99240.56;;;26.90;46.64
26376;BME280;30544;42.196;24.336;2023-08-20T05:26:05;99244.72;;;26.92;47.56
26376;BME280;30544;42.196;24.336;2023-08-20T05:28:32;99247.09;;;27.03;47.57
26376;BME280;30544;42.196;24.336;2023-08-20T05:31:04;99241.03;;;27.04;46.89
26376;BME280;30544;42.196;24.336;2023-08-20T05:33:36;99237.50;;;27.07;46.83
26376;BME280;30544;42.196;24.336;2023-08-20T05:36:07;99246.94;;;26.99;47.27
26376;BME280;30544;42.196;24.336;2023-08-20T05:38:35;99249.47;;;27.01;47.17
26376;BME280;30544;42.196;24.336;2023-08-20T05:41:16;99250.44;;;27.05;46.80
26376;BME280;30544;42.196;24.336;2023-08-20T05:43:51;99255.81;;;26.85;47.47
26376;BME280;30544;42.196;24.336;2023-08-20T05:46:17;99247.78;;;26.99;47.27
26376;BME280;30544;42.196;24.336;2023-08-20T05:48:44;99262.50;;;27.14;47.04
26376;BME280;30544;42.196;24.336;2023-08-20T05:51:11;99250.88;;;27.19;47.41
26376;BME280;30544;42.196;24.336;2023-08-20T05:53:39;99248.59;;;27.37;47.54
26376;BME280;30544;42.196;24.336;2023-08-20T05:56:07;99238.47;;;27.51;46.51
26376;BME280;30544;42.196;24.336;2023-08-20T05:58:34;99250.00;;;27.55;46.39
26376;BME280;30544;42.196;24.336;2023-08-20T06:01:01;99250.19;;;27.62;46.01
26376;BME280;30544;42.196;24.336;2023-08-20T06:03:31;99242.84;;;27.61;45.43
26376;BME280;30544;42.196;24.336;2023-08-20T06:06:00;99255.91;;;27.74;45.63
26376;BME280;30544;42.196;24.336;2023-08-20T06:08:38;99251.50;;;27.77;44.68
26376;BME280;30544;42.196;24.336;2023-08-20T06:11:09;99262.25;;;27.83;45.07
26376;BME280;30544;42.196;24.336;2023-08-20T06:13:41;99256.25;;;28.01;44.71
26376;BME280;30544;42.196;24.336;2023-08-20T06:16:07;99259.84;;;27.98;44.60
26376;BME280;30544;42.196;24.336;2023-08-20T06:18:45;99259.56;;;28.03;44.59
26376;BME280;30544;42.196;24.336;2023-08-20T06:21:18;99256.56;;;28.11;43.61
26376;BME280;30544;42.196;24.336;2023-08-20T06:23:46;99257.94;;;28.30;43.89
26376;BME280;30544;42.196;24.336;2023-08-20T06:26:21;99258.59;;;28.55;43.86
26376;BME280;30544;42.196;24.336;2023-08-20T06:28:50;99262.28;;;28.71;43.58
26376;BME280;30544;42.196;24.336;2023-08-20T06:31:21;99263.69;;;28.77;43.86
26376;BME280;30544;42.196;24.336;2023-08-20T06:33:51;99265.78;;;28.80;43.56
26376;BME280;30544;42.196;24.336;2023-08-20T06:36:25;99260.09;;;28.80;43.64
26376;BME280;30544;42.196;24.336;2023-08-20T06:38:53;99264.34;;;28.86;42.85
26376;BME280;30544;42.196;24.336;2023-08-20T06:41:21;99265.44;;;28.97;42.63
26376;BME280;30544;42.196;24.336;2023-08-20T06:43:47;99263.25;;;29.07;43.18
26376;BME280;30544;42.196;24.336;2023-08-20T06:46:21;99269.66;;;29.03;42.11
26376;BME280;30544;42.196;24.336;2023-08-20T06:48:48;99265.06;;;29.15;42.80
26376;BME280;30544;42.196;24.336;2023-08-20T06:51:19;99266.16;;;29.26;42.70
26376;BME280;30544;42.196;24.336;2023-08-20T06:53:47;99267.06;;;29.30;42.49
26376;BME280;30544;42.196;24.336;2023-08-20T06:56:26;99265.50;;;29.32;42.01
26376;BME280;30544;42.196;24.336;2023-08-20T06:58:57;99260.69;;;29.36;41.67
26376;BME280;30544;42.196;24.336;2023-08-20T07:01:27;99270.91;;;29.38;41.78
26376;BME280;30544;42.196;24.336;2023-08-20T07:03:56;99274.25;;;29.40;41.78
26376;BME280;30544;42.196;24.336;2023-08-20T07:06:25;99272.94;;;29.37;42.32
26376;BME280;30544;42.196;24.336;2023-08-20T07:08:51;99272.94;;;29.37;41.70
26376;BME280;30544;42.196;24.336;2023-08-20T07:11:21;99278.09;;;29.47;41.58
26376;BME280;30544;42.196;24.336;2023-08-20T07:13:50;99274.06;;;29.48;41.63
26376;BME280;30544;42.196;24.336;2023-08-20T07:16:20;99277.28;;;29.47;41.17
26376;BME280;30544;42.196;24.336;2023-08-20T07:18:46;99276.44;;;29.46;41.00
26376;BME280;30544;42.196;24.336;2023-08-20T07:21:20;99278.09;;;29.47;41.50
26376;BME280;30544;42.196;24.336;2023-08-20T07:23:47;99277.34;;;29.50;41.53
26376;BME280;30544;42.196;24.336;2023-08-20T07:26:15;99281.13;;;29.54;42.44
26376;BME280;30544;42.196;24.336;2023-08-20T07:28:44;99288.97;;;29.57;41.84
26376;BME280;30544;42.196;24.336;2023-08-20T07:31:22;99282.06;;;29.58;41.48
26376;BME280;30544;42.196;24.336;2023-08-20T07:33:50;99283.53;;;29.52;41.78
26376;BME280;30544;42.196;24.336;2023-08-20T07:36:19;99283.25;;;29.57;42.19
26376;BME280;30544;42.196;24.336;2023-08-20T07:38:48;99284.06;;;29.58;41.68
26376;BME280;30544;42.196;24.336;2023-08-20T07:41:15;99279.28;;;29.62;42.12
26376;BME280;30544;42.196;24.336;2023-08-20T07:43:45;99275.22;;;29.63;41.40
26376;BME280;30544;42.196;24.336;2023-08-20T07:46:14;99283.09;;;29.70;41.63
26376;BME280;30544;42.196;24.336;2023-08-20T07:48:41;99275.22;;;29.63;42.00
26376;BME280;30544;42.196;24.336;2023-08-20T07:51:08;99280.34;;;29.73;41.76
26376;BME280;30544;42.196;24.336;2023-08-20T07:53:35;99273.19;;;29.83;41.78
26376;BME280;30544;42.196;24.336;2023-08-20T07:56:22;99276.38;;;29.97;40.96
26376;BME280;30544;42.196;24.336;2023-08-20T07:58:51;99268.06;;;30.08;40.17
26376;BME280;30544;42.196;24.336;2023-08-20T08:01:18;99271.94;;;30.19;40.19
26376;BME280;30544;42.196;24.336;2023-08-20T08:03:45;99267.97;;;30.23;39.86
26376;BME280;30544;42.196;24.336;2023-08-20T08:06:19;99271.09;;;30.38;39.60
26376;BME280;30544;42.196;24.336;2023-08-20T08:08:50;99272.19;;;30.52;40.34
26376;BME280;30544;42.196;24.336;2023-08-20T08:11:21;99274.91;;;30.65;39.62
26376;BME280;30544;42.196;24.336;2023-08-20T08:13:51;99274.72;;;30.77;39.36
26376;BME280;30544;42.196;24.336;2023-08-20T08:16:20;99272.03;;;30.88;38.91
26376;BME280;30544;42.196;24.336;2023-08-20T08:18:47;99268.97;;;31.00;39.00
26376;BME280;30544;42.196;24.336;2023-08-20T08:21:13;99268.25;;;31.06;38.11
26376;BME280;30544;42.196;24.336;2023-08-20T08:23:40;99271.69;;;31.16;37.42
26376;BME280;30544;42.196;24.336;2023-08-20T08:26:07;99268.91;;;31.19;37.49
26376;BME280;30544;42.196;24.336;2023-08-20T08:28:36;99268.66;;;31.28;36.74
26376;BME280;30544;42.196;24.336;2023-08-20T08:31:06;99259.78;;;31.36;36.90
26376;BME280;30544;42.196;24.336;2023-08-20T08:33:33;99261.13;;;31.42;37.60
26376;BME280;30544;42.196;24.336;2023-08-20T08:35:59;99261.22;;;31.50;36.94
26376;BME280;30544;42.196;24.336;2023-08-20T08:38:27;99262.41;;;31.49;36.58
26376;BME280;30544;42.196;24.336;2023-08-20T08:40:55;99255.13;;;31.55;36.78
26376;BME280;30544;42.196;24.336;2023-08-20T08:43:29;99268.78;;;31.65;36.71
26376;BME280;30544;42.196;24.336;2023-08-20T08:45:58;99264.38;;;31.71;36.70
26376;BME280;30544;42.196;24.336;2023-08-20T08:48:27;99269.81;;;31.76;37.05
26376;BME280;30544;42.196;24.336;2023-08-20T08:50:58;99265.31;;;31.75;36.37
26376;BME280;30544;42.196;24.336;2023-08-20T08:53:25;99257.66;;;31.86;37.07
26376;BME280;30544;42.196;24.336;2023-08-20T08:55:57;99255.28;;;31.92;36.24
26376;BME280;30544;42.196;24.336;2023-08-20T08:58:28;99247.59;;;31.99;36.89
26376;BME280;30544;42.196;24.336;2023-08-20T09:00:59;99248.41;;;32.00;36.32
26376;BME280;30544;42.196;24.336;2023-08-20T09:03:27;99255.78;;;32.01;36.07
26376;BME280;30544;42.196;24.336;2023-08-20T09:05:55;99244.75;;;32.03;36.42
26376;BME280;30544;42.196;24.336;2023-08-20T09:08:26;99240.25;;;32.02;35.45
26376;BME280;30544;42.196;24.336;2023-08-20T09:10:55;99242.75;;;32.07;35.85
26376;BME280;30544;42.196;24.336;2023-08-20T09:13:33;99246.44;;;32.08;36.24
26376;BME280;30544;42.196;24.336;2023-08-20T09:16:03;99244.41;;;32.08;35.53
26376;BME280;30544;42.196;24.336;2023-08-20T09:18:31;99244.03;;;32.10;35.40
26376;BME280;30544;42.196;24.336;2023-08-20T09:20:58;99242.84;;;32.14;35.74
26376;BME280;30544;42.196;24.336;2023-08-20T09:23:29;99243.28;;;32.16;35.83
26376;BME280;30544;42.196;24.336;2023-08-20T09:26:01;99248.25;;;32.23;35.08
26376;BME280;30544;42.196;24.336;2023-08-20T09:28:29;99242.13;;;32.24;35.06
26376;BME280;30544;42.196;24.336;2023-08-20T09:30:57;99243.94;;;32.36;35.19
26376;BME280;30544;42.196;24.336;2023-08-20T09:33:29;99237.34;;;32.32;33.45
26376;BME280;30544;42.196;24.336;2023-08-20T09:35:58;99233.72;;;32.39;34.49
26376;BME280;30544;42.196;24.336;2023-08-20T09:38:26;99228.03;;;32.42;34.23
26376;BME280;30544;42.196;24.336;2023-08-20T09:41:00;99227.53;;;32.33;34.15
26376;BME280;30544;42.196;24.336;2023-08-20T09:43:30;99222.25;;;32.39;33.95
26376;BME280;30544;42.196;24.336;2023-08-20T09:46:00;99222.72;;;32.44;33.40
26376;BME280;30544;42.196;24.336;2023-08-20T09:48:33;99224.00;;;32.50;33.29
26376;BME280;30544;42.196;24.336;2023-08-20T09:51:04;99230.19;;;32.52;33.47
26376;BME280;30544;42.196;24.336;2023-08-20T09:53:35;99226.19;;;32.64;33.78
26376;BME280;30544;42.196;24.336;2023-08-20T09:56:09;99225.81;;;32.66;33.05
26376;BME280;30544;42.196;24.336;2023-08-20T09:58:39;99224.16;;;32.65;33.11
26376;BME280;30544;42.196;24.336;2023-08-20T10:01:07;99224.63;;;32.74;32.23
26376;BME280;30544;42.196;24.336;2023-08-20T10:03:50;99216.06;;;32.77;32.42
26376;BME280;30544;42.196;24.336;2023-08-20T10:06:18;99211.59;;;32.80;33.17
26376;BME280;30544;42.196;24.336;2023-08-20T10:08:51;99217.38;;;32.83;32.98
26376;BME280;30544;42.196;24.336;2023-08-20T10:11:21;99216.56;;;32.83;32.38
26376;BME280;30544;42.196;24.336;2023-08-20T10:13:50;99216.56;;;32.83;32.59
26376;BME280;30544;42.196;24.336;2023-08-20T10:16:17;99206.31;;;32.85;32.44
26376;BME280;30544;42.196;24.336;2023-08-20T10:18:47;99199.44;;;32.94;32.48
26376;BME280;30544;42.196;24.336;2023-08-20T10:21:14;99197.81;;;32.96;32.82
26376;BME280;30544;42.196;24.336;2023-08-20T10:23:42;99199.47;;;33.01;33.05
26376;BME280;30544;42.196;24.336;2023-08-20T10:26:10;99190.47;;;33.06;32.28
26376;BME280;30544;42.196;24.336;2023-08-20T10:28:41;99196.28;;;33.09;32.45
26376;BME280;30544;42.196;24.336;2023-08-20T10:31:11;99192.94;;;33.07;32.02
26376;BME280;30544;42.196;24.336;2023-08-20T10:33:49;99189.72;;;33.12;32.71
26376;BME280;30544;42.196;24.336;2023-08-20T10:36:20;99189.22;;;33.03;32.26
26376;BME280;30544;42.196;24.336;2023-08-20T10:38:49;99185.13;;;33.01;32.33
26376;BME280;30544;42.196;24.336;2023-08-20T10:41:25;99181.09;;;33.12;31.85
26376;BME280;30544;42.196;24.336;2023-08-20T10:43:51;99183.16;;;33.12;31.30
26376;BME280;30544;42.196;24.336;2023-08-20T10:46:20;99176.19;;;33.13;31.25
26376;BME280;30544;42.196;24.336;2023-08-20T10:48:51;99173.34;;;33.20;31.41
26376;BME280;30544;42.196;24.336;2023-08-20T10:51:19;99171.28;;;33.20;31.34
26376;BME280;30544;42.196;24.336;2023-08-20T10:54:09;99176.22;;;33.20;31.20
26376;BME280;30544;42.196;24.336;2023-08-20T10:56:45;99165.56;;;33.24;31.14
26376;BME280;30544;42.196;24.336;2023-08-20T10:59:17;99167.66;;;33.27;30.62
26376;BME280;30544;42.196;24.336;2023-08-20T11:01:45;99165.59;;;33.28;30.49
26376;BME280;30544;42.196;24.336;2023-08-20T11:04:16;99157.44;;;33.33;31.00
26376;BME280;30544;42.196;24.336;2023-08-20T11:06:49;99154.19;;;33.38;31.22
26376;BME280;30544;42.196;24.336;2023-08-20T11:09:19;99158.69;;;33.36;31.34
26376;BME280;30544;42.196;24.336;2023-08-20T11:11:45;99157.06;;;33.38;31.70
26376;BME280;30544;42.196;24.336;2023-08-20T11:14:14;99155.03;;;33.42;31.54
26376;BME280;30544;42.196;24.336;2023-08-20T11:16:43;99157.06;;;33.42;32.20
26376;BME280;30544;42.196;24.336;2023-08-20T11:19:19;99146.03;;;33.44;31.59
26376;BME280;30544;42.196;24.336;2023-08-20T11:21:52;99149.25;;;33.39;31.86
26376;BME280;30544;42.196;24.336;2023-08-20T11:24:20;99140.63;;;33.39;31.61
26376;BME280;30544;42.196;24.336;2023-08-20T11:26:53;99135.72;;;33.36;31.59
26376;BME280;30544;42.196;24.336;2023-08-20T11:29:20;99134.09;;;33.42;31.16
26376;BME280;30544;42.196;24.336;2023-08-20T11:31:49;99130.00;;;33.43;31.24
26376;BME280;30544;42.196;24.336;2023-08-20T11:34:18;99125.47;;;33.42;31.04
26376;BME280;30544;42.196;24.336;2023-08-20T11:36:52;99127.56;;;33.45;31.61
26376;BME280;30544;42.196;24.336;2023-08-20T11:39:21;99109.50;;;33.44;31.45
26376;BME280;30544;42.196;24.336;2023-08-20T11:41:47;99111.97;;;33.49;31.39
26376;BME280;30544;42.196;24.336;2023-08-20T11:44:21;99112.81;;;33.54;32.28
26376;BME280;30544;42.196;24.336;2023-08-20T11:46:48;99106.25;;;33.57;31.27
26376;BME280;30544;42.196;24.336;2023-08-20T11:49:20;99100.91;;;33.59;30.94
26376;BME280;30544;42.196;24.336;2023-08-20T11:51:52;99109.53;;;33.59;30.40
26376;BME280;30544;42.196;24.336;2023-08-20T11:54:23;99100.53;;;33.67;30.83
26376;BME280;30544;42.196;24.336;2023-08-20T11:57:01;99102.19;;;33.72;31.06
26376;BME280;30544;42.196;24.336;2023-08-20T11:59:29;99096.03;;;33.73;30.59
26376;BME280;30544;42.196;24.336;2023-08-20T12:01:57;99094.00;;;33.81;29.67
26376;BME280;30544;42.196;24.336;2023-08-20T12:04:27;99089.13;;;33.89;31.00
26376;BME280;30544;42.196;24.336;2023-08-20T12:07:09;99098.56;;;33.93;31.04
26376;BME280;30544;42.196;24.336;2023-08-20T12:09:38;99089.13;;;33.92;30.89
26376;BME280;30544;42.196;24.336;2023-08-20T12:12:06;99089.16;;;34.03;31.86
26376;BME280;30544;42.196;24.336;2023-08-20T12:14:35;99083.00;;;34.01;29.78
26376;BME280;30544;42.196;24.336;2023-08-20T12:17:02;99082.56;;;34.06;30.76
26376;BME280;30544;42.196;24.336;2023-08-20T12:19:29;99079.72;;;34.17;30.21
26376;BME280;30544;42.196;24.336;2023-08-20T12:21:56;99071.50;;;34.15;29.79
26376;BME280;30544;42.196;24.336;2023-08-20T12:24:25;99073.97;;;34.20;30.40
26376;BME280;30544;42.196;24.336;2023-08-20T12:26:53;99068.63;;;34.19;29.74
26376;BME280;30544;42.196;24.336;2023-08-20T12:29:26;99061.25;;;34.28;30.45
26376;BME280;30544;42.196;24.336;2023-08-20T12:31:55;99053.81;;;34.24;30.46
26376;BME280;30544;42.196;24.336;2023-08-20T12:34:21;99058.38;;;34.32;30.75
26376;BME280;30544;42.196;24.336;2023-08-20T12:36:51;99058.78;;;34.34;30.05
26376;BME280;30544;42.196;24.336;2023-08-20T12:39:18;99053.84;;;34.34;29.58
26376;BME280;30544;42.196;24.336;2023-08-20T12:41:46;99055.91;;;34.37;29.90
26376;BME280;30544;42.196;24.336;2023-08-20T12:44:14;99059.59;;;34.42;29.36
26376;BME280;30544;42.196;24.336;2023-08-20T12:46:46;99054.69;;;34.46;30.37
26376;BME280;30544;42.196;24.336;2023-08-20T12:49:14;99048.09;;;34.49;30.20
26376;BME280;30544;42.196;24.336;2023-08-20T12:51:45;99048.09;;;34.49;28.73
26376;BME280;30544;42.196;24.336;2023-08-20T12:54:12;99045.66;;;34.47;29.57
26376;BME280;30544;42.196;24.336;2023-08-20T12:56:44;99042.34;;;34.49;29.32
26376;BME280;30544;42.196;24.336;2023-08-20T12:59:16;99040.69;;;34.51;28.91
26376;BME280;30544;42.196;24.336;2023-08-20T13:01:44;99037.41;;;34.56;29.24
26376;BME280;30544;42.196;24.336;2023-08-20T13:04:16;99034.94;;;34.58;29.51